sensor_id;sensor_type;location;lat;lon;timestamp;P1;durP1;ratioP1;P2;durP2;ratioP2
14292;SDS011;62290;59.420;17.842;2023-10-09T00:00:07;0.32;;;0.32;;
14292;SDS011;62290;59.420;17.842;2023-10-09T00:03:04;1.85;;;0.40;;
14292;SDS011;62290;59.420;17.842;2023-10-09T00:05:33;1.20;;;0.60;;
14292;SDS011;62290;59.420;17.842;2023-10-09T00:08:13;1.58;;;0.43;;
14292;SDS011;62290;59.420;17.842;2023-10-09T00:10:46;3.10;;;0.73;;
14292;SDS011;62290;59.420;17.842;2023-10-09T00:13:20;0.52;;;0.40;;
14292;SDS011;62290;59.420;17.842;2023-10-09T00:15:54;6.13;;;0.50;;
14292;SDS011;62290;59.420;17.842;2023-10-09T00:18:28;1.50;;;0.50;;
14292;SDS011;62290;59.420;17.842;2023-10-09T00:20:57;1.27;;;0.40;;
14292;SDS011;62290;59.420;17.842;2023-10-09T00:23:38;3.88;;;0.50;;
14292;SDS011;62290;59.420;17.842;2023-10-09T00:26:07;0.30;;;0.28;;
14292;SDS011;62290;59.420;17.842;2023-10-09T00:28:46;1.17;;;0.50;;
14292;SDS011;62290;59.420;17.842;2023-10-09T00:31:18;0.73;;;0.40;;
14292;SDS011;62290;59.420;17.842;2023-10-09T00:33:58;0.77;;;0.30;;
14292;SDS011;62290;59.420;17.842;2023-10-09T00:36:45;0.70;;;0.40;;
14292;SDS011;62290;59.420;17.842;2023-10-09T00:39:18;0.57;;;0.40;;
14292;SDS011;62290;59.420;17.842;2023-10-09T00:42:00;0.80;;;0.50;;
14292;SDS011;62290;59.420;17.842;2023-10-09T00:44:29;2.15;;;0.47;;
14292;SDS011;62290;59.420;17.842;2023-10-09T00:47:04;1.10;;;0.30;;
14292;SDS011;62290;59.420;17.842;2023-10-09T00:49:50;1.45;;;0.40;;
14292;SDS011;62290;59.420;17.842;2023-10-09T00:52:26;0.90;;;0.35;;
14292;SDS011;62290;59.420;17.842;2023-10-09T00:54:59;0.32;;;0.28;;
14292;SDS011;62290;59.420;17.842;2023-10-09T00:57:34;0.47;;;0.30;;
14292;SDS011;62290;59.420;17.842;2023-10-09T01:00:07;0.68;;;0.30;;
14292;SDS011;62290;59.420;17.842;2023-10-09T01:02:50;0.63;;;0.40;;
14292;SDS011;62290;59.420;17.842;2023-10-09T01:05:39;0.73;;;0.20;;
14292;SDS011;62290;59.420;17.842;2023-10-09T01:08:12;0.63;;;0.40;;
14292;SDS011;62290;59.420;17.842;2023-10-09T01:10:51;0.80;;;0.40;;
14292;SDS011;62290;59.420;17.842;2023-10-09T01:13:23;0.73;;;0.32;;
14292;SDS011;62290;59.420;17.842;2023-10-09T01:16:05;1.27;;;0.73;;
14292;SDS011;62290;59.420;17.842;2023-10-09T01:18:37;0.80;;;0.40;;
14292;SDS011;62290;59.420;17.842;2023-10-09T01:21:08;0.50;;;0.50;;
14292;SDS011;62290;59.420;17.842;2023-10-09T01:23:41;3.50;;;0.40;;
14292;SDS011;62290;59.420;17.842;2023-10-09T01:26:25;2.08;;;0.40;;
14292;SDS011;62290;59.420;17.842;2023-10-09T01:28:53;1.27;;;0.40;;
14292;SDS011;62290;59.420;17.842;2023-10-09T01:31:24;0.20;;;0.20;;
14292;SDS011;62290;59.420;17.842;2023-10-09T01:33:53;0.35;;;0.30;;
14292;SDS011;62290;59.420;17.842;2023-10-09T01:36:26;0.60;;;0.40;;
14292;SDS011;62290;59.420;17.842;2023-10-09T01:39:00;2.70;;;0.32;;
14292;SDS011;62290;59.420;17.842;2023-10-09T01:41:33;0.38;;;0.32;;
14292;SDS011;62290;59.420;17.842;2023-10-09T01:44:04;1.55;;;0.55;;
14292;SDS011;62290;59.420;17.842;2023-10-09T01:46:38;1.33;;;0.50;;
14292;SDS011;62290;59.420;17.842;2023-10-09T01:49:07;0.40;;;0.30;;
14292;SDS011;62290;59.420;17.842;2023-10-09T01:51:44;0.77;;;0.40;;
14292;SDS011;62290;59.420;17.842;2023-10-09T01:54:15;2.90;;;0.57;;
14292;SDS011;62290;59.420;17.842;2023-10-09T01:57:00;0.70;;;0.50;;
14292;SDS011;62290;59.420;17.842;2023-10-09T01:59:32;2.58;;;0.30;;
14292;SDS011;62290;59.420;17.842;2023-10-09T02:02:04;0.63;;;0.40;;
14292;SDS011;62290;59.420;17.842;2023-10-09T02:04:53;0.28;;;0.28;;
14292;SDS011;62290;59.420;17.842;2023-10-09T02:07:30;1.35;;;0.50;;
14292;SDS011;62290;59.420;17.842;2023-10-09T02:10:09;0.93;;;0.30;;
14292;SDS011;62290;59.420;17.842;2023-10-09T02:12:48;0.93;;;0.30;;
14292;SDS011;62290;59.420;17.842;2023-10-09T02:15:20;0.47;;;0.30;;
14292;SDS011;62290;59.420;17.842;2023-10-09T02:18:07;0.80;;;0.45;;
14292;SDS011;62290;59.420;17.842;2023-10-09T02:20:46;0.73;;;0.50;;
14292;SDS011;62290;59.420;17.842;2023-10-09T02:23:22;0.88;;;0.40;;
14292;SDS011;62290;59.420;17.842;2023-10-09T02:25:57;0.93;;;0.60;;
14292;SDS011;62290;59.420;17.842;2023-10-09T02:28:28;1.00;;;0.40;;
14292;SDS011;62290;59.420;17.842;2023-10-09T02:30:59;0.60;;;0.30;;
14292;SDS011;62290;59.420;17.842;2023-10-09T02:33:29;0.30;;;0.30;;
14292;SDS011;62290;59.420;17.842;2023-10-09T02:35:59;0.43;;;0.40;;
14292;SDS011;62290;59.420;17.842;2023-10-09T02:38:31;0.73;;;0.52;;
14292;SDS011;62290;59.420;17.842;2023-10-09T02:41:03;0.60;;;0.45;;
14292;SDS011;62290;59.420;17.842;2023-10-09T02:43:47;0.60;;;0.45;;
14292;SDS011;62290;59.420;17.842;2023-10-09T02:46:17;0.85;;;0.35;;
14292;SDS011;62290;59.420;17.842;2023-10-09T02:48:56;0.57;;;0.20;;
14292;SDS011;62290;59.420;17.842;2023-10-09T02:51:25;0.57;;;0.55;;
14292;SDS011;62290;59.420;17.842;2023-10-09T02:54:01;1.10;;;0.40;;
14292;SDS011;62290;59.420;17.842;2023-10-09T02:56:46;0.95;;;0.38;;
14292;SDS011;62290;59.420;17.842;2023-10-09T02:59:21;1.13;;;0.40;;
14292;SDS011;62290;59.420;17.842;2023-10-09T03:01:50;1.00;;;0.30;;
14292;SDS011;62290;59.420;17.842;2023-10-09T03:04:19;0.50;;;0.32;;
14292;SDS011;62290;59.420;17.842;2023-10-09T03:06:51;0.75;;;0.38;;
14292;SDS011;62290;59.420;17.842;2023-10-09T03:09:23;0.73;;;0.20;;
14292;SDS011;62290;59.420;17.842;2023-10-09T03:11:57;0.30;;;0.30;;
14292;SDS011;62290;59.420;17.842;2023-10-09T03:14:30;0.30;;;0.28;;
14292;SDS011;62290;59.420;17.842;2023-10-09T03:16:58;0.65;;;0.30;;
14292;SDS011;62290;59.420;17.842;2023-10-09T03:19:27;0.50;;;0.32;;
14292;SDS011;62290;59.420;17.842;2023-10-09T03:21:55;1.98;;;0.77;;
14292;SDS011;62290;59.420;17.842;2023-10-09T03:24:24;0.30;;;0.30;;
14292;SDS011;62290;59.420;17.842;2023-10-09T03:26:54;1.38;;;0.40;;
14292;SDS011;62290;59.420;17.842;2023-10-09T03:29:24;0.82;;;0.45;;
14292;SDS011;62290;59.420;17.842;2023-10-09T03:31:54;0.63;;;0.45;;
14292;SDS011;62290;59.420;17.842;2023-10-09T03:34:23;0.30;;;0.25;;
14292;SDS011;62290;59.420;17.842;2023-10-09T03:36:51;0.43;;;0.40;;
14292;SDS011;62290;59.420;17.842;2023-10-09T03:39:30;0.52;;;0.30;;
14292;SDS011;62290;59.420;17.842;2023-10-09T03:42:05;0.68;;;0.30;;
14292;SDS011;62290;59.420;17.842;2023-10-09T03:44:39;1.65;;;0.30;;
14292;SDS011;62290;59.420;17.842;2023-10-09T03:47:10;0.30;;;0.28;;
14292;SDS011;62290;59.420;17.842;2023-10-09T03:49:38;0.22;;;0.22;;
14292;SDS011;62290;59.420;17.842;2023-10-09T03:52:06;0.30;;;0.30;;
14292;SDS011;62290;59.420;17.842;2023-10-09T03:54:35;0.95;;;0.40;;
14292;SDS011;62290;59.420;17.842;2023-10-09T03:57:04;0.50;;;0.30;;
14292;SDS011;62290;59.420;17.842;2023-10-09T03:59:32;0.65;;;0.47;;
14292;SDS011;62290;59.420;17.842;2023-10-09T04:02:02;1.63;;;0.52;;
14292;SDS011;62290;59.420;17.842;2023-10-09T04:04:31;0.32;;;0.30;;
14292;SDS011;62290;59.420;17.842;2023-10-09T04:07:00;0.52;;;0.40;;
14292;SDS011;62290;59.420;17.842;2023-10-09T04:09:28;0.80;;;0.30;;
14292;SDS011;62290;59.420;17.842;2023-10-09T04:12:06;0.73;;;0.40;;
14292;SDS011;62290;59.420;17.842;2023-10-09T04:14:46;1.98;;;0.43;;
14292;SDS011;62290;59.420;17.842;2023-10-09T04:17:23;0.45;;;0.35;;
14292;SDS011;62290;59.420;17.842;2023-10-09T04:20:01;0.35;;;0.35;;
14292;SDS011;62290;59.420;17.842;2023-10-09T04:23:08;0.40;;;0.30;;
14292;SDS011;62290;59.420;17.842;2023-10-09T04:25:42;0.30;;;0.30;;
14292;SDS011;62290;59.420;17.842;2023-10-09T04:28:12;0.43;;;0.30;;
14292;SDS011;62290;59.420;17.842;2023-10-09T04:30:46;0.95;;;0.47;;
14292;SDS011;62290;59.420;17.842;2023-10-09T04:33:21;0.50;;;0.40;;
14292;SDS011;62290;59.420;17.842;2023-10-09T04:36:07;0.40;;;0.40;;
14292;SDS011;62290;59.420;17.842;2023-10-09T04:38:59;2.58;;;0.30;;
14292;SDS011;62290;59.420;17.842;2023-10-09T04:41:41;1.85;;;0.40;;
14292;SDS011;62290;59.420;17.842;2023-10-09T04:44:19;0.98;;;0.55;;
14292;SDS011;62290;59.420;17.842;2023-10-09T04:46:49;0.88;;;0.40;;
14292;SDS011;62290;59.420;17.842;2023-10-09T04:49:33;0.57;;;0.38;;
14292;SDS011;62290;59.420;17.842;2023-10-09T04:52:16;1.20;;;0.50;;
14292;SDS011;62290;59.420;17.842;2023-10-09T04:55:17;0.43;;;0.43;;
14292;SDS011;62290;59.420;17.842;2023-10-09T04:57:47;0.50;;;0.40;;
14292;SDS011;62290;59.420;17.842;2023-10-09T05:00:28;0.55;;;0.30;;
14292;SDS011;62290;59.420;17.842;2023-10-09T05:03:30;1.67;;;0.32;;
14292;SDS011;62290;59.420;17.842;2023-10-09T05:06:13;0.75;;;0.60;;
14292;SDS011;62290;59.420;17.842;2023-10-09T05:08:58;0.35;;;0.30;;
14292;SDS011;62290;59.420;17.842;2023-10-09T05:11:42;0.40;;;0.30;;
14292;SDS011;62290;59.420;17.842;2023-10-09T05:14:42;1.38;;;0.40;;
14292;SDS011;62290;59.420;17.842;2023-10-09T05:17:31;0.60;;;0.40;;
14292;SDS011;62290;59.420;17.842;2023-10-09T05:20:01;0.75;;;0.60;;
14292;SDS011;62290;59.420;17.842;2023-10-09T05:22:47;0.40;;;0.30;;
14292;SDS011;62290;59.420;17.842;2023-10-09T05:25:25;1.55;;;0.40;;
14292;SDS011;62290;59.420;17.842;2023-10-09T05:28:11;0.40;;;0.32;;
14292;SDS011;62290;59.420;17.842;2023-10-09T05:30:57;0.68;;;0.47;;
14292;SDS011;62290;59.420;17.842;2023-10-09T05:33:36;0.60;;;0.40;;
14292;SDS011;62290;59.420;17.842;2023-10-09T05:36:04;0.30;;;0.30;;
14292;SDS011;62290;59.420;17.842;2023-10-09T05:38:45;2.13;;;1.25;;
14292;SDS011;62290;59.420;17.842;2023-10-09T05:41:14;2.20;;;1.00;;
14292;SDS011;62290;59.420;17.842;2023-10-09T05:43:59;0.93;;;0.82;;
14292;SDS011;62290;59.420;17.842;2023-10-09T05:46:45;0.90;;;0.63;;
14292;SDS011;62290;59.420;17.842;2023-10-09T05:49:36;1.10;;;0.65;;
14292;SDS011;62290;59.420;17.842;2023-10-09T05:52:12;1.20;;;0.60;;
14292;SDS011;62290;59.420;17.842;2023-10-09T05:54:59;1.65;;;0.50;;
14292;SDS011;62290;59.420;17.842;2023-10-09T05:57:45;2.53;;;0.80;;
14292;SDS011;62290;59.420;17.842;2023-10-09T06:00:26;1.02;;;0.57;;
14292;SDS011;62290;59.420;17.842;2023-10-09T06:03:12;2.28;;;0.50;;
14292;SDS011;62290;59.420;17.842;2023-10-09T06:06:05;1.90;;;0.45;;
14292;SDS011;62290;59.420;17.842;2023-10-09T06:08:34;1.75;;;0.55;;
14292;SDS011;62290;59.420;17.842;2023-10-09T06:11:33;2.35;;;0.40;;
14292;SDS011;62290;59.420;17.842;2023-10-09T06:14:09;1.65;;;0.60;;
14292;SDS011;62290;59.420;17.842;2023-10-09T06:16:49;1.23;;;0.45;;
14292;SDS011;62290;59.420;17.842;2023-10-09T06:19:27;1.52;;;0.50;;
14292;SDS011;62290;59.420;17.842;2023-10-09T06:21:55;0.90;;;0.60;;
14292;SDS011;62290;59.420;17.842;2023-10-09T06:24:41;0.45;;;0.32;;
14292;SDS011;62290;59.420;17.842;2023-10-09T06:27:22;2.60;;;0.63;;
14292;SDS011;62290;59.420;17.842;2023-10-09T06:30:12;2.78;;;0.50;;
14292;SDS011;62290;59.420;17.842;2023-10-09T06:32:51;1.23;;;0.50;;
14292;SDS011;62290;59.420;17.842;2023-10-09T06:35:25;0.70;;;0.40;;
14292;SDS011;62290;59.420;17.842;2023-10-09T06:37:58;1.23;;;0.65;;
14292;SDS011;62290;59.420;17.842;2023-10-09T06:40:40;1.65;;;0.77;;
14292;SDS011;62290;59.420;17.842;2023-10-09T06:43:34;11.27;;;0.88;;
14292;SDS011;62290;59.420;17.842;2023-10-09T06:46:14;1.48;;;0.85;;
14292;SDS011;62290;59.420;17.842;2023-10-09T06:49:01;2.70;;;0.80;;
14292;SDS011;62290;59.420;17.842;2023-10-09T06:51:49;3.97;;;0.50;;
14292;SDS011;62290;59.420;17.842;2023-10-09T06:54:22;2.08;;;0.43;;
14292;SDS011;62290;59.420;17.842;2023-10-09T06:56:52;1.98;;;0.50;;
14292;SDS011;62290;59.420;17.842;2023-10-09T06:59:41;1.27;;;0.50;;
14292;SDS011;62290;59.420;17.842;2023-10-09T07:02:29;1.45;;;0.50;;
14292;SDS011;62290;59.420;17.842;2023-10-09T07:05:02;1.52;;;0.40;;
14292;SDS011;62290;59.420;17.842;2023-10-09T07:07:39;2.70;;;0.63;;
14292;SDS011;62290;59.420;17.842;2023-10-09T07:10:17;1.58;;;0.50;;
14292;SDS011;62290;59.420;17.842;2023-10-09T07:12:59;0.38;;;0.28;;
14292;SDS011;62290;59.420;17.842;2023-10-09T07:15:31;1.15;;;0.40;;
14292;SDS011;62290;59.420;17.842;2023-10-09T07:18:16;0.85;;;0.20;;
14292;SDS011;62290;59.420;17.842;2023-10-09T07:20:50;0.57;;;0.35;;
14292;SDS011;62290;59.420;17.842;2023-10-09T07:23:27;1.30;;;0.90;;
14292;SDS011;62290;59.420;17.842;2023-10-09T07:26:00;1.60;;;0.40;;
14292;SDS011;62290;59.420;17.842;2023-10-09T07:28:45;3.10;;;0.70;;
14292;SDS011;62290;59.420;17.842;2023-10-09T07:31:20;3.45;;;0.50;;
14292;SDS011;62290;59.420;17.842;2023-10-09T07:33:56;1.70;;;0.50;;
14292;SDS011;62290;59.420;17.842;2023-10-09T07:36:24;0.40;;;0.40;;
14292;SDS011;62290;59.420;17.842;2023-10-09T07:39:02;1.35;;;0.45;;
14292;SDS011;62290;59.420;17.842;2023-10-09T07:41:40;0.75;;;0.40;;
14292;SDS011;62290;59.420;17.842;2023-10-09T07:44:22;1.52;;;0.45;;
14292;SDS011;62290;59.420;17.842;2023-10-09T07:47:05;0.28;;;0.28;;
14292;SDS011;62290;59.420;17.842;2023-10-09T07:49:46;0.10;;;0.10;;
14292;SDS011;62290;59.420;17.842;2023-10-09T07:52:21;5.07;;;0.50;;
14292;SDS011;62290;59.420;17.842;2023-10-09T07:54:52;1.08;;;0.47;;
14292;SDS011;62290;59.420;17.842;2023-10-09T07:57:28;0.30;;;0.30;;
14292;SDS011;62290;59.420;17.842;2023-10-09T08:00:06;0.93;;;0.40;;
14292;SDS011;62290;59.420;17.842;2023-10-09T08:02:56;0.77;;;0.40;;
14292;SDS011;62290;59.420;17.842;2023-10-09T08:05:27;0.50;;;0.30;;
14292;SDS011;62290;59.420;17.842;2023-10-09T08:08:00;0.80;;;0.45;;
14292;SDS011;62290;59.420;17.842;2023-10-09T08:11:02;1.10;;;0.50;;
14292;SDS011;62290;59.420;17.842;2023-10-09T08:13:48;3.72;;;0.57;;
14292;SDS011;62290;59.420;17.842;2023-10-09T08:16:27;1.20;;;0.60;;
14292;SDS011;62290;59.420;17.842;2023-10-09T08:19:05;0.70;;;0.50;;
14292;SDS011;62290;59.420;17.842;2023-10-09T08:21:59;0.77;;;0.30;;
14292;SDS011;62290;59.420;17.842;2023-10-09T08:24:44;0.70;;;0.57;;
14292;SDS011;62290;59.420;17.842;2023-10-09T08:27:19;0.90;;;0.38;;
14292;SDS011;62290;59.420;17.842;2023-10-09T08:30:20;0.85;;;0.50;;
14292;SDS011;62290;59.420;17.842;2023-10-09T08:33:15;0.90;;;0.50;;
14292;SDS011;62290;59.420;17.842;2023-10-09T08:36:22;0.32;;;0.32;;
14292;SDS011;62290;59.420;17.842;2023-10-09T08:38:55;0.43;;;0.28;;
14292;SDS011;62290;59.420;17.842;2023-10-09T08:41:24;1.33;;;0.40;;
14292;SDS011;62290;59.420;17.842;2023-10-09T08:43:57;0.90;;;0.40;;
14292;SDS011;62290;59.420;17.842;2023-10-09T08:46:26;2.90;;;0.55;;
14292;SDS011;62290;59.420;17.842;2023-10-09T08:48:56;1.70;;;0.65;;
14292;SDS011;62290;59.420;17.842;2023-10-09T08:51:27;1.48;;;0.50;;
14292;SDS011;62290;59.420;17.842;2023-10-09T08:53:56;7.15;;;0.75;;
14292;SDS011;62290;59.420;17.842;2023-10-09T08:56:24;5.28;;;0.50;;
14292;SDS011;62290;59.420;17.842;2023-10-09T08:58:52;1.77;;;1.00;;
14292;SDS011;62290;59.420;17.842;2023-10-09T09:01:22;2.17;;;0.50;;
14292;SDS011;62290;59.420;17.842;2023-10-09T09:03:52;2.60;;;0.80;;
14292;SDS011;62290;59.420;17.842;2023-10-09T09:06:22;2.40;;;0.98;;
14292;SDS011;62290;59.420;17.842;2023-10-09T09:08:52;1.98;;;0.80;;
14292;SDS011;62290;59.420;17.842;2023-10-09T09:11:26;1.60;;;0.50;;
14292;SDS011;62290;59.420;17.842;2023-10-09T09:14:01;4.15;;;0.60;;
14292;SDS011;62290;59.420;17.842;2023-10-09T09:16:40;5.30;;;0.68;;
14292;SDS011;62290;59.420;17.842;2023-10-09T09:19:14;3.17;;;0.60;;
14292;SDS011;62290;59.420;17.842;2023-10-09T09:21:49;6.43;;;2.65;;
14292;SDS011;62290;59.420;17.842;2023-10-09T09:24:22;9.70;;;6.07;;
14292;SDS011;62290;59.420;17.842;2023-10-09T09:27:00;25.67;;;20.60;;
14292;SDS011;62290;59.420;17.842;2023-10-09T09:29:40;182.38;;;98.40;;
14292;SDS011;62290;59.420;17.842;2023-10-09T09:32:26;337.85;;;186.90;;
14292;SDS011;62290;59.420;17.842;2023-10-09T09:35:02;264.13;;;146.45;;
14292;SDS011;62290;59.420;17.842;2023-10-09T09:37:32;205.52;;;111.05;;
14292;SDS011;62290;59.420;17.842;2023-10-09T09:40:18;150.82;;;86.55;;
14292;SDS011;62290;59.420;17.842;2023-10-09T09:43:00;110.65;;;60.10;;
14292;SDS011;62290;59.420;17.842;2023-10-09T09:45:32;91.85;;;47.90;;
14292;SDS011;62290;59.420;17.842;2023-10-09T09:48:02;71.28;;;40.03;;
14292;SDS011;62290;59.420;17.842;2023-10-09T09:50:32;69.65;;;36.05;;
14292;SDS011;62290;59.420;17.842;2023-10-09T09:53:09;51.35;;;26.23;;
14292;SDS011;62290;59.420;17.842;2023-10-09T09:55:49;35.70;;;21.15;;
14292;SDS011;62290;59.420;17.842;2023-10-09T09:58:23;34.33;;;18.27;;
14292;SDS011;62290;59.420;17.842;2023-10-09T10:00:59;29.02;;;15.45;;
14292;SDS011;62290;59.420;17.842;2023-10-09T10:03:34;25.65;;;12.77;;
14292;SDS011;62290;59.420;17.842;2023-10-09T10:06:06;21.05;;;10.88;;
14292;SDS011;62290;59.420;17.842;2023-10-09T10:08:36;17.88;;;10.38;;
14292;SDS011;62290;59.420;17.842;2023-10-09T10:11:07;16.60;;;9.07;;
14292;SDS011;62290;59.420;17.842;2023-10-09T10:13:55;15.70;;;7.78;;
14292;SDS011;62290;59.420;17.842;2023-10-09T10:16:26;16.10;;;8.15;;
14292;SDS011;62290;59.420;17.842;2023-10-09T10:19:01;12.40;;;7.07;;
14292;SDS011;62290;59.420;17.842;2023-10-09T10:21:49;15.27;;;6.63;;
14292;SDS011;62290;59.420;17.842;2023-10-09T10:24:40;12.93;;;6.32;;
14292;SDS011;62290;59.420;17.842;2023-10-09T10:27:26;9.93;;;5.15;;
14292;SDS011;62290;59.420;17.842;2023-10-09T10:32:58;12.60;;;5.47;;
14292;SDS011;62290;59.420;17.842;2023-10-09T10:35:36;9.55;;;4.68;;
14292;SDS011;62290;59.420;17.842;2023-10-09T10:38:24;9.13;;;4.82;;
14292;SDS011;62290;59.420;17.842;2023-10-09T10:41:09;6.13;;;3.28;;
14292;SDS011;62290;59.420;17.842;2023-10-09T10:43:41;6.50;;;3.17;;
14292;SDS011;62290;59.420;17.842;2023-10-09T10:46:22;8.23;;;3.47;;
14292;SDS011;62290;59.420;17.842;2023-10-09T10:49:05;7.32;;;3.38;;
14292;SDS011;62290;59.420;17.842;2023-10-09T10:51:47;8.50;;;3.58;;
14292;SDS011;62290;59.420;17.842;2023-10-09T10:54:27;3.22;;;2.78;;
14292;SDS011;62290;59.420;17.842;2023-10-09T10:57:14;5.53;;;2.92;;
14292;SDS011;62290;59.420;17.842;2023-10-09T10:59:57;5.55;;;2.40;;
14292;SDS011;62290;59.420;17.842;2023-10-09T11:03:00;4.90;;;2.88;;
14292;SDS011;62290;59.420;17.842;2023-10-09T11:05:43;5.07;;;2.65;;
14292;SDS011;62290;59.420;17.842;2023-10-09T11:08:17;7.53;;;3.60;;
14292;SDS011;62290;59.420;17.842;2023-10-09T11:10:50;5.30;;;2.58;;
14292;SDS011;62290;59.420;17.842;2023-10-09T11:13:20;4.00;;;2.20;;
14292;SDS011;62290;59.420;17.842;2023-10-09T11:16:01;5.47;;;2.53;;
14292;SDS011;62290;59.420;17.842;2023-10-09T11:18:50;3.22;;;2.08;;
14292;SDS011;62290;59.420;17.842;2023-10-09T11:21:18;3.95;;;2.15;;
14292;SDS011;62290;59.420;17.842;2023-10-09T11:24:00;6.18;;;2.20;;
14292;SDS011;62290;59.420;17.842;2023-10-09T11:26:42;10.93;;;2.25;;
14292;SDS011;62290;59.420;17.842;2023-10-09T11:29:21;4.68;;;2.40;;
14292;SDS011;62290;59.420;17.842;2023-10-09T11:32:20;4.63;;;2.65;;
14292;SDS011;62290;59.420;17.842;2023-10-09T11:34:51;5.50;;;2.05;;
14292;SDS011;62290;59.420;17.842;2023-10-09T11:37:37;3.67;;;1.80;;
14292;SDS011;62290;59.420;17.842;2023-10-09T11:40:06;7.70;;;2.10;;
14292;SDS011;62290;59.420;17.842;2023-10-09T11:42:50;2.60;;;1.58;;
14292;SDS011;62290;59.420;17.842;2023-10-09T11:45:24;2.78;;;1.60;;
14292;SDS011;62290;59.420;17.842;2023-10-09T11:47:57;2.97;;;1.42;;
14292;SDS011;62290;59.420;17.842;2023-10-09T11:50:41;4.45;;;1.88;;
14292;SDS011;62290;59.420;17.842;2023-10-09T11:53:15;5.25;;;1.38;;
14292;SDS011;62290;59.420;17.842;2023-10-09T11:55:59;4.15;;;1.50;;
14292;SDS011;62290;59.420;17.842;2023-10-09T11:58:28;1.50;;;1.00;;
14292;SDS011;62290;59.420;17.842;2023-10-09T12:00:56;3.63;;;1.38;;
14292;SDS011;62290;59.420;17.842;2023-10-09T12:03:32;3.25;;;1.55;;
14292;SDS011;62290;59.420;17.842;2023-10-09T12:06:01;1.58;;;1.13;;
14292;SDS011;62290;59.420;17.842;2023-10-09T12:08:32;1.38;;;0.80;;
14292;SDS011;62290;59.420;17.842;2023-10-09T12:11:01;2.08;;;1.00;;
14292;SDS011;62290;59.420;17.842;2023-10-09T12:13:35;1.98;;;1.10;;
14292;SDS011;62290;59.420;17.842;2023-10-09T12:16:04;1.98;;;0.90;;
14292;SDS011;62290;59.420;17.842;2023-10-09T12:18:37;3.30;;;1.13;;
14292;SDS011;62290;59.420;17.842;2023-10-09T12:21:06;9.90;;;1.10;;
14292;SDS011;62290;59.420;17.842;2023-10-09T12:23:34;1.35;;;0.82;;
14292;SDS011;62290;59.420;17.842;2023-10-09T12:26:03;2.10;;;1.23;;
14292;SDS011;62290;59.420;17.842;2023-10-09T12:28:31;1.10;;;0.80;;
14292;SDS011;62290;59.420;17.842;2023-10-09T12:31:01;7.68;;;1.00;;
14292;SDS011;62290;59.420;17.842;2023-10-09T12:33:29;1.27;;;0.90;;
14292;SDS011;62290;59.420;17.842;2023-10-09T12:35:59;1.73;;;1.20;;
14292;SDS011;62290;59.420;17.842;2023-10-09T12:38:28;2.08;;;1.15;;
14292;SDS011;62290;59.420;17.842;2023-10-09T12:41:02;1.20;;;0.85;;
14292;SDS011;62290;59.420;17.842;2023-10-09T12:43:43;0.77;;;0.52;;
14292;SDS011;62290;59.420;17.842;2023-10-09T12:46:11;0.70;;;0.50;;
14292;SDS011;62290;59.420;17.842;2023-10-09T12:48:43;1.85;;;0.85;;
14292;SDS011;62290;59.420;17.842;2023-10-09T12:51:14;2.50;;;1.10;;
14292;SDS011;62290;59.420;17.842;2023-10-09T12:53:43;1.10;;;0.60;;
14292;SDS011;62290;59.420;17.842;2023-10-09T12:56:12;1.35;;;0.80;;
14292;SDS011;62290;59.420;17.842;2023-10-09T12:58:40;2.15;;;0.77;;
14292;SDS011;62290;59.420;17.842;2023-10-09T13:01:19;1.58;;;0.60;;
14292;SDS011;62290;59.420;17.842;2023-10-09T13:03:47;1.38;;;0.90;;
14292;SDS011;62290;59.420;17.842;2023-10-09T13:06:18;1.85;;;0.68;;
14292;SDS011;62290;59.420;17.842;2023-10-09T13:08:51;1.25;;;0.70;;
14292;SDS011;62290;59.420;17.842;2023-10-09T13:11:19;2.65;;;0.60;;
14292;SDS011;62290;59.420;17.842;2023-10-09T13:13:47;0.82;;;0.63;;
14292;SDS011;62290;59.420;17.842;2023-10-09T13:16:18;0.93;;;0.50;;
14292;SDS011;62290;59.420;17.842;2023-10-09T13:18:50;1.02;;;0.45;;
14292;SDS011;62290;59.420;17.842;2023-10-09T13:21:20;1.98;;;0.70;;
14292;SDS011;62290;59.420;17.842;2023-10-09T13:23:49;1.17;;;0.60;;
14292;SDS011;62290;59.420;17.842;2023-10-09T13:26:21;0.50;;;0.50;;
14292;SDS011;62290;59.420;17.842;2023-10-09T13:29:00;0.50;;;0.50;;
14292;SDS011;62290;59.420;17.842;2023-10-09T13:31:30;0.90;;;0.60;;
14292;SDS011;62290;59.420;17.842;2023-10-09T13:34:02;0.82;;;0.70;;
14292;SDS011;62290;59.420;17.842;2023-10-09T13:36:34;1.25;;;0.70;;
14292;SDS011;62290;59.420;17.842;2023-10-09T13:39:04;2.67;;;0.60;;
14292;SDS011;62290;59.420;17.842;2023-10-09T13:41:50;3.45;;;0.60;;
14292;SDS011;62290;59.420;17.842;2023-10-09T13:44:25;1.20;;;0.63;;
14292;SDS011;62290;59.420;17.842;2023-10-09T13:46:54;2.08;;;1.05;;
14292;SDS011;62290;59.420;17.842;2023-10-09T13:49:23;1.67;;;0.60;;
14292;SDS011;62290;59.420;17.842;2023-10-09T13:51:58;3.78;;;0.75;;
14292;SDS011;62290;59.420;17.842;2023-10-09T13:54:29;0.77;;;0.68;;
14292;SDS011;62290;59.420;17.842;2023-10-09T13:57:06;1.25;;;0.68;;
14292;SDS011;62290;59.420;17.842;2023-10-09T13:59:37;2.05;;;0.50;;
14292;SDS011;62290;59.420;17.842;2023-10-09T14:02:10;1.20;;;0.50;;
14292;SDS011;62290;59.420;17.842;2023-10-09T14:04:44;1.92;;;0.57;;
14292;SDS011;62290;59.420;17.842;2023-10-09T14:07:15;3.97;;;0.65;;
14292;SDS011;62290;59.420;17.842;2023-10-09T14:09:44;1.10;;;0.57;;
14292;SDS011;62290;59.420;17.842;2023-10-09T14:12:22;1.13;;;0.60;;
14292;SDS011;62290;59.420;17.842;2023-10-09T14:14:51;1.30;;;0.55;;
14292;SDS011;62290;59.420;17.842;2023-10-09T14:17:21;1.48;;;0.52;;
14292;SDS011;62290;59.420;17.842;2023-10-09T14:19:55;1.73;;;0.80;;
14292;SDS011;62290;59.420;17.842;2023-10-09T14:22:46;1.08;;;0.55;;
14292;SDS011;62290;59.420;17.842;2023-10-09T14:25:19;1.02;;;0.47;;
14292;SDS011;62290;59.420;17.842;2023-10-09T14:27:47;1.98;;;0.60;;
14292;SDS011;62290;59.420;17.842;2023-10-09T14:30:15;0.63;;;0.40;;
14292;SDS011;62290;59.420;17.842;2023-10-09T14:32:52;1.60;;;0.70;;
14292;SDS011;62290;59.420;17.842;2023-10-09T14:35:22;0.90;;;0.45;;
14292;SDS011;62290;59.420;17.842;2023-10-09T14:37:54;2.25;;;0.70;;
14292;SDS011;62290;59.420;17.842;2023-10-09T14:40:22;1.35;;;0.57;;
14292;SDS011;62290;59.420;17.842;2023-10-09T14:42:58;2.30;;;0.57;;
14292;SDS011;62290;59.420;17.842;2023-10-09T14:45:26;2.10;;;0.70;;
14292;SDS011;62290;59.420;17.842;2023-10-09T14:47:54;3.22;;;0.98;;
14292;SDS011;62290;59.420;17.842;2023-10-09T14:50:22;4.93;;;0.73;;
14292;SDS011;62290;59.420;17.842;2023-10-09T14:52:50;2.13;;;0.73;;
14292;SDS011;62290;59.420;17.842;2023-10-09T14:55:20;3.78;;;1.10;;
14292;SDS011;62290;59.420;17.842;2023-10-09T14:57:56;6.38;;;2.65;;
14292;SDS011;62290;59.420;17.842;2023-10-09T15:00:25;7.90;;;3.58;;
14292;SDS011;62290;59.420;17.842;2023-10-09T15:02:53;10.73;;;4.50;;
14292;SDS011;62290;59.420;17.842;2023-10-09T15:05:21;9.68;;;4.28;;
14292;SDS011;62290;59.420;17.842;2023-10-09T15:07:50;9.95;;;4.32;;
14292;SDS011;62290;59.420;17.842;2023-10-09T15:10:21;6.75;;;3.55;;
14292;SDS011;62290;59.420;17.842;2023-10-09T15:12:50;6.25;;;2.75;;
14292;SDS011;62290;59.420;17.842;2023-10-09T15:15:18;4.13;;;2.10;;
14292;SDS011;62290;59.420;17.842;2023-10-09T15:17:52;4.05;;;2.30;;
14292;SDS011;62290;59.420;17.842;2023-10-09T15:20:20;2.90;;;1.58;;
14292;SDS011;62290;59.420;17.842;2023-10-09T15:22:48;5.72;;;2.40;;
14292;SDS011;62290;59.420;17.842;2023-10-09T15:25:16;3.83;;;1.70;;
14292;SDS011;62290;59.420;17.842;2023-10-09T15:27:46;3.25;;;1.67;;